createdAt,value
2022-09-02T00:01:54.633Z,14.92
2022-09-02T00:04:22.700Z,14.85
2022-09-02T00:06:50.067Z,14.90
2022-09-02T00:09:17.483Z,14.90
2022-09-02T00:11:45.183Z,14.83
2022-09-02T00:14:13.828Z,14.86
2022-09-02T00:16:41.940Z,14.87
2022-09-02T00:19:08.656Z,14.88
2022-09-02T00:21:35.304Z,14.82
2022-09-02T00:24:04.119Z,14.83
2022-09-02T00:26:30.677Z,14.79
2022-09-02T00:28:57.649Z,14.79
2022-09-02T00:31:24.996Z,14.75
2022-09-02T00:33:52.043Z,14.75
2022-09-02T00:36:18.523Z,14.76
2022-09-02T00:38:45.077Z,14.74
2022-09-02T00:41:12.368Z,14.71
2022-09-02T00:43:38.855Z,14.69
2022-09-02T00:46:06.069Z,14.66
2022-09-02T00:48:32.832Z,14.65
2022-09-02T00:50:59.346Z,14.62
2022-09-02T00:53:26.236Z,14.63
2022-09-02T00:55:52.884Z,14.63
2022-09-02T00:58:21.234Z,14.65
2022-09-02T01:00:48.721Z,14.57
2022-09-02T01:03:16.989Z,14.55
2022-09-02T01:05:45.756Z,14.56
2022-09-02T01:08:19.532Z,14.52
2022-09-02T01:10:47.665Z,14.49
2022-09-02T01:13:15.939Z,14.51
2022-09-02T01:15:44.592Z,14.50
2022-09-02T01:18:13.908Z,14.49
2022-09-02T01:20:40.430Z,14.52
2022-09-02T01:23:06.913Z,14.52
2022-09-02T01:25:35.274Z,14.57
2022-09-02T01:28:07.845Z,14.50
2022-09-02T01:30:36.379Z,14.49
2022-09-02T01:33:02.909Z,14.54
2022-09-02T01:35:29.871Z,14.53
2022-09-02T01:37:57.877Z,14.49
2022-09-02T01:40:25.173Z,14.44
2022-09-02T01:42:56.161Z,14.45
2022-09-02T01:45:22.855Z,14.50
2022-09-02T01:47:49.435Z,14.50
2022-09-02T01:50:15.927Z,14.47
2022-09-02T01:52:42.739Z,14.47
2022-09-02T01:55:09.603Z,14.44
2022-09-02T01:57:36.099Z,14.47
2022-09-02T02:00:04.269Z,14.47
2022-09-02T02:02:31.026Z,14.45
2022-09-02T02:04:57.507Z,14.46
2022-09-02T02:07:25.021Z,14.45
2022-09-02T02:09:51.745Z,14.47
2022-09-02T02:12:19.169Z,14.40
2022-09-02T02:14:45.696Z,14.44
2022-09-02T02:17:12.371Z,14.43
2022-09-02T02:19:38.916Z,14.42
2022-09-02T02:22:05.471Z,14.45
2022-09-02T02:24:31.971Z,14.46
2022-09-02T02:26:58.519Z,14.38
2022-09-02T02:29:24.964Z,14.36
2022-09-02T02:31:51.521Z,14.35
2022-09-02T02:34:18.094Z,14.34
2022-09-02T02:36:44.721Z,14.35
2022-09-02T02:39:11.505Z,14.36
2022-09-02T02:41:38.919Z,14.38
2022-09-02T02:44:05.436Z,14.36
2022-09-02T02:46:33.523Z,14.33
2022-09-02T02:49:00.095Z,14.36
2022-09-02T02:51:26.575Z,14.39
2022-09-02T02:53:55.740Z,14.36
2022-09-02T02:56:25.212Z,14.31
2022-09-02T02:58:51.994Z,14.39
2022-09-02T03:01:18.574Z,14.41
2022-09-02T03:03:45.149Z,14.34
2022-09-02T03:06:11.679Z,14.32
2022-09-02T03:08:38.167Z,14.35
2022-09-02T03:11:07.048Z,14.38
2022-09-02T03:13:34.762Z,14.32
2022-09-02T03:16:01.454Z,14.36
2022-09-02T03:18:27.983Z,14.36
2022-09-02T03:20:55.341Z,14.30
2022-09-02T03:23:21.995Z,14.29
2022-09-02T03:25:48.686Z,14.27
2022-09-02T03:28:15.745Z,14.32
2022-09-02T03:30:42.607Z,14.30
2022-09-02T03:33:09.131Z,14.33
2022-09-02T03:35:39.052Z,14.35
2022-09-02T03:38:05.603Z,14.37
2022-09-02T03:40:32.144Z,14.33
2022-09-02T03:43:00.384Z,14.39
2022-09-02T03:45:27.447Z,14.35
2022-09-02T03:47:56.625Z,14.37
2022-09-02T03:50:25.687Z,14.38
2022-09-02T03:52:52.375Z,14.42
2022-09-02T03:55:19.392Z,14.38
2022-09-02T03:57:46.256Z,14.38
2022-09-02T04:00:14.851Z,14.34
2022-09-02T04:02:42.163Z,14.36
2022-09-02T04:05:15.846Z,14.36
2022-09-02T04:07:42.870Z,14.29
2022-09-02T04:10:14.451Z,14.33
2022-09-02T04:12:41.243Z,14.33
2022-09-02T04:15:09.066Z,14.34
2022-09-02T04:17:36.026Z,14.35
2022-09-02T04:20:03.430Z,14.36
2022-09-02T04:22:29.915Z,14.34
2022-09-02T04:24:56.440Z,14.31
2022-09-02T04:27:22.988Z,14.30
2022-09-02T04:29:49.438Z,14.28
2022-09-02T04:32:16.003Z,14.30
2022-09-02T04:34:43.199Z,14.33
2022-09-02T04:37:10.013Z,14.29
2022-09-02T04:39:36.544Z,14.27
2022-09-02T04:42:03.132Z,14.19
2022-09-02T04:44:29.602Z,14.18
2022-09-02T04:46:56.085Z,14.10
2022-09-02T04:49:22.671Z,14.01
2022-09-02T04:51:49.448Z,14.02
2022-09-02T04:54:16.277Z,13.91
2022-09-02T04:56:42.843Z,13.93
2022-09-02T04:59:09.328Z,13.94
2022-09-02T05:01:36.776Z,13.88
2022-09-02T05:04:10.070Z,13.83
2022-09-02T05:06:41.940Z,13.77
2022-09-02T05:09:10.501Z,13.72
2022-09-02T05:11:38.820Z,13.65
2022-09-02T05:14:06.699Z,13.69
2022-09-02T05:16:36.777Z,13.66
2022-09-02T05:19:04.607Z,13.65
2022-09-02T05:21:34.315Z,13.57
2022-09-02T05:24:01.177Z,13.54
2022-09-02T05:26:27.973Z,13.52
2022-09-02T05:28:54.448Z,13.53
2022-09-02T05:31:21.540Z,13.53
2022-09-02T05:33:57.218Z,13.56
2022-09-02T05:36:23.841Z,13.58
2022-09-02T05:38:50.854Z,13.58
2022-09-02T05:41:23.553Z,13.55
2022-09-02T05:43:51.561Z,13.53
2022-09-02T05:46:19.230Z,13.52
2022-09-02T05:49:04.819Z,13.50
2022-09-02T05:51:32.137Z,13.48
2022-09-02T05:54:00.227Z,13.51
2022-09-02T05:56:27.556Z,13.55
2022-09-02T05:58:58.783Z,13.51
2022-09-02T06:01:27.560Z,13.55
2022-09-02T06:03:54.131Z,13.48
2022-09-02T06:06:23.015Z,13.56
2022-09-02T06:08:50.587Z,13.56
2022-09-02T06:11:18.239Z,13.57
2022-09-02T06:13:46.095Z,13.57
2022-09-02T06:16:20.244Z,13.52
2022-09-02T06:18:47.603Z,13.52
2022-09-02T06:21:14.739Z,13.57
2022-09-02T06:23:41.464Z,13.51
2022-09-02T06:26:09.103Z,13.47
2022-09-02T06:28:35.800Z,13.43
2022-09-02T06:31:15.358Z,13.44
2022-09-02T06:33:43.466Z,13.45
2022-09-02T06:36:10.880Z,13.39
2022-09-02T06:38:45.239Z,13.32
2022-09-02T06:41:14.008Z,13.37
2022-09-02T06:43:42.605Z,13.26
2022-09-02T06:46:14.854Z,13.26
2022-09-02T06:48:41.689Z,13.22
2022-09-02T06:51:08.190Z,13.22
2022-09-02T06:53:34.710Z,13.23
2022-09-02T06:56:01.275Z,13.26
2022-09-02T06:58:27.868Z,13.27
2022-09-02T07:00:54.341Z,13.26
2022-09-02T07:03:39.276Z,13.26
2022-09-02T07:06:09.536Z,13.23
2022-09-02T07:08:37.418Z,13.27
2022-09-02T07:11:04.852Z,13.28
2022-09-02T07:13:31.505Z,13.26
2022-09-02T07:15:57.999Z,13.36
2022-09-02T07:18:25.020Z,13.34
2022-09-02T07:20:51.617Z,13.36
2022-09-02T07:23:18.166Z,13.36
2022-09-02T07:25:44.705Z,13.38
2022-09-02T07:28:11.841Z,13.42
2022-09-02T07:30:40.841Z,13.41
2022-09-02T07:33:07.491Z,13.30
2022-09-02T07:35:34.053Z,13.32
2022-09-02T07:38:00.810Z,13.32
2022-09-02T07:40:27.339Z,13.39
2022-09-02T07:42:54.520Z,13.42
2022-09-02T07:45:21.339Z,13.41
2022-09-02T07:47:49.207Z,13.41
2022-09-02T07:50:20.208Z,13.33
2022-09-02T07:52:47.667Z,13.28
2022-09-02T07:55:15.203Z,13.29
2022-09-02T07:57:42.122Z,13.29
2022-09-02T08:00:09.182Z,13.34
2022-09-02T08:02:35.989Z,13.34
2022-09-02T08:05:02.674Z,13.34
2022-09-02T08:07:31.692Z,13.25
2022-09-02T08:10:01.140Z,13.27
2022-09-02T08:12:28.359Z,13.26
2022-09-02T08:14:56.005Z,13.23
2022-09-02T08:17:22.654Z,13.32
2022-09-02T08:19:49.283Z,13.42
2022-09-02T08:22:15.910Z,13.47
2022-09-02T08:24:42.543Z,13.45
2022-09-02T08:27:09.555Z,13.55
2022-09-02T08:29:36.198Z,13.63
2022-09-02T08:32:03.012Z,13.77
2022-09-02T08:34:29.889Z,13.74
2022-09-02T08:36:57.339Z,13.83
2022-09-02T08:39:24.466Z,13.84
2022-09-02T08:41:51.001Z,13.82
2022-09-02T08:44:21.675Z,13.75
2022-09-02T08:46:49.983Z,13.78
2022-09-02T08:49:34.918Z,13.87
2022-09-02T08:52:03.514Z,13.89
2022-09-02T08:54:33.200Z,13.86
2022-09-02T08:56:59.860Z,13.86
2022-09-02T08:59:28.244Z,13.78
2022-09-02T09:01:57.861Z,13.86
2022-09-02T09:04:27.610Z,13.91
2022-09-02T09:07:09.694Z,13.93
2022-09-02T09:09:48.489Z,13.98
2022-09-02T09:12:33.884Z,14.02
2022-09-02T09:15:04.089Z,14.01
2022-09-02T09:17:52.948Z,14.07
2022-09-02T09:20:22.909Z,14.17
2022-09-02T09:22:51.122Z,14.19
2022-09-02T09:25:18.097Z,14.28
2022-09-02T09:27:47.399Z,14.37
2022-09-02T09:30:15.694Z,14.34
2022-09-02T09:32:51.150Z,14.29
2022-09-02T09:35:18.852Z,14.18
2022-09-02T09:37:50.199Z,14.10
2022-09-02T09:40:26.079Z,14.15
2022-09-02T09:42:57.658Z,14.10
2022-09-02T09:45:34.922Z,14.13
2022-09-02T09:48:10.792Z,14.13
2022-09-02T09:50:37.400Z,14.14
2022-09-02T09:53:36.598Z,14.18
2022-09-02T09:56:07.977Z,14.18
2022-09-02T09:58:40.544Z,14.30
2022-09-02T10:01:13.261Z,14.34
2022-09-02T10:03:47.888Z,14.37
2022-09-02T10:06:21.964Z,14.30
2022-09-02T10:08:56.145Z,14.39
2022-09-02T10:11:26.922Z,14.52
2022-09-02T10:13:58.967Z,14.40
2022-09-02T10:16:58.410Z,14.43
2022-09-02T10:19:30.221Z,14.50
2022-09-02T10:21:56.873Z,14.35
2022-09-02T10:24:42.932Z,14.39
2022-09-02T10:27:13.163Z,14.37
2022-09-02T10:29:54.904Z,14.48
2022-09-02T10:32:27.538Z,14.54
2022-09-02T10:34:54.076Z,14.51
2022-09-02T10:37:23.407Z,14.55
2022-09-02T10:39:49.918Z,14.52
2022-09-02T10:42:20.008Z,14.52
2022-09-02T10:44:58.950Z,14.53
2022-09-02T10:47:38.893Z,14.49
2022-09-02T10:50:08.413Z,14.52
2022-09-02T10:52:38.751Z,14.52
2022-09-02T10:55:25.587Z,14.48
2022-09-02T10:57:54.549Z,14.45
2022-09-02T11:00:21.510Z,14.44
2022-09-02T11:02:51.847Z,14.39
2022-09-02T11:05:22.703Z,14.51
2022-09-02T11:07:54.919Z,14.49
2022-09-02T11:10:41.798Z,14.52
2022-09-02T11:13:14.788Z,14.49
2022-09-02T11:15:58.083Z,14.46
2022-09-02T11:18:30.389Z,14.48
2022-09-02T11:21:01.000Z,14.55
2022-09-02T11:23:33.188Z,14.61
2022-09-02T11:26:17.001Z,14.68
2022-09-02T11:29:05.231Z,14.70
2022-09-02T11:31:40.825Z,14.65
2022-09-02T11:34:20.921Z,14.74
2022-09-02T11:36:48.735Z,14.62
2022-09-02T11:40:02.353Z,14.53
2022-09-02T11:42:50.608Z,14.52
2022-09-02T11:45:36.288Z,14.52
2022-09-02T11:48:11.967Z,14.49
2022-09-02T11:50:41.669Z,14.48
2022-09-02T11:53:24.418Z,14.52
2022-09-02T11:55:50.940Z,14.46
2022-09-02T11:58:35.939Z,14.48
2022-09-02T12:01:07.917Z,14.45
2022-09-02T12:04:06.793Z,14.39
2022-09-02T12:06:30.683Z,14.37
2022-09-02T12:08:58.939Z,14.45
2022-09-02T12:11:38.017Z,14.50
2022-09-02T12:14:07.989Z,14.49
2022-09-02T12:16:36.611Z,14.51
2022-09-02T12:19:10.099Z,14.54
2022-09-02T12:21:56.753Z,14.52
2022-09-02T12:24:25.513Z,14.62
2022-09-02T12:26:52.935Z,14.63
2022-09-02T12:29:19.451Z,14.67
2022-09-02T12:31:51.439Z,14.75
2022-09-02T12:34:21.397Z,14.83
2022-09-02T12:36:47.998Z,14.84
2022-09-02T12:39:27.459Z,14.81
2022-09-02T12:41:54.457Z,14.78
2022-09-02T12:44:27.832Z,14.82
2022-09-02T12:47:05.567Z,14.82
2022-09-02T12:50:01.852Z,14.73
2022-09-02T12:52:34.433Z,14.68
2022-09-02T12:55:08.763Z,14.64
2022-09-02T12:57:39.400Z,14.55
2022-09-02T13:00:06.314Z,14.51
2022-09-02T13:02:53.150Z,14.50
2022-09-02T13:05:24.261Z,14.31
2022-09-02T13:08:09.425Z,14.36
2022-09-02T13:10:41.903Z,14.46
2022-09-02T13:13:31.546Z,14.48
2022-09-02T13:16:13.419Z,14.42
2022-09-02T13:18:45.480Z,14.37
2022-09-02T13:21:20.843Z,14.38
2022-09-02T13:24:05.820Z,14.44
2022-09-02T13:26:50.880Z,14.45
2022-09-02T13:29:36.305Z,14.41
2022-09-02T13:32:11.261Z,14.45
2022-09-02T13:34:42.455Z,14.43
2022-09-02T13:37:28.599Z,14.43
2022-09-02T13:39:55.500Z,14.39
2022-09-02T13:42:31.966Z,14.47
2022-09-02T13:45:10.213Z,14.40
2022-09-02T13:47:37.143Z,14.41
2022-09-02T13:50:05.504Z,14.36
2022-09-02T13:53:12.292Z,14.34
2022-09-02T13:55:20.800Z,14.43
2022-09-02T13:58:06.793Z,14.41
2022-09-02T14:00:37.868Z,14.48
2022-09-02T14:03:04.712Z,14.51
2022-09-02T14:05:33.129Z,14.50
2022-09-02T14:08:03.250Z,14.48
2022-09-02T14:10:31.662Z,14.46
2022-09-02T14:12:58.786Z,14.52
2022-09-02T14:15:27.463Z,14.56
2022-09-02T14:18:17.914Z,14.55
2022-09-02T14:21:01.507Z,14.52
2022-09-02T14:23:29.808Z,14.55
2022-09-02T14:25:57.884Z,14.61
2022-09-02T14:28:29.409Z,14.56
2022-09-02T14:30:55.963Z,14.61
2022-09-02T14:33:22.472Z,14.65
2022-09-02T14:35:56.076Z,14.59
2022-09-02T14:38:24.049Z,14.56
2022-09-02T14:40:58.676Z,14.62
2022-09-02T14:43:25.374Z,14.63
2022-09-02T14:45:52.036Z,14.62
2022-09-02T14:48:22.682Z,14.55
2022-09-02T14:50:50.513Z,14.63
2022-09-02T14:53:21.528Z,14.60
2022-09-02T14:55:52.594Z,14.64
2022-09-02T14:58:19.824Z,14.63
2022-09-02T15:00:53.891Z,14.60
2022-09-02T15:03:20.674Z,14.55
2022-09-02T15:05:47.389Z,14.53
2022-09-02T15:08:14.479Z,14.51
2022-09-02T15:10:42.448Z,14.51
2022-09-02T15:13:35.060Z,14.53
2022-09-02T15:16:02.774Z,14.51
2022-09-02T15:18:29.614Z,14.55
2022-09-02T15:20:56.331Z,14.45
2022-09-02T15:23:22.985Z,14.47
2022-09-02T15:25:49.691Z,14.48
2022-09-02T15:28:16.333Z,14.49
2022-09-02T15:30:43.011Z,14.48
2022-09-02T15:33:16.721Z,14.48
2022-09-02T15:35:44.584Z,14.53
2022-09-02T15:38:11.159Z,14.50
2022-09-02T15:40:37.738Z,14.50
2022-09-02T15:43:04.300Z,14.52
2022-09-02T15:45:31.282Z,14.50
2022-09-02T15:47:59.171Z,14.39
2022-09-02T15:50:28.294Z,14.37
2022-09-02T15:52:56.116Z,14.46
2022-09-02T15:55:29.089Z,14.46
2022-09-02T15:57:56.256Z,14.42
2022-09-02T16:00:22.926Z,14.44
2022-09-02T16:02:54.591Z,14.51
2022-09-02T16:05:21.474Z,14.50
2022-09-02T16:07:49.171Z,14.51
2022-09-02T16:10:15.762Z,14.53
2022-09-02T16:12:42.467Z,14.56
2022-09-02T16:15:09.572Z,14.59
2022-09-02T16:17:36.325Z,14.59
2022-09-02T16:20:03.708Z,14.59
2022-09-02T16:22:30.321Z,14.60
2022-09-02T16:24:56.918Z,14.61
2022-09-02T16:27:43.447Z,14.61
2022-09-02T16:30:10.238Z,14.62
2022-09-02T16:32:38.158Z,14.65
2022-09-02T16:35:05.020Z,14.65
2022-09-02T16:37:31.585Z,14.68
2022-09-02T16:39:58.227Z,14.67
2022-09-02T16:42:24.997Z,14.64
2022-09-02T16:44:51.851Z,14.66
2022-09-02T16:47:18.719Z,14.67
2022-09-02T16:49:46.471Z,14.69
2022-09-02T16:52:13.458Z,14.69
2022-09-02T16:54:41.062Z,14.65
2022-09-02T16:57:08.136Z,14.68
2022-09-02T16:59:37.830Z,14.64
2022-09-02T17:02:04.383Z,14.66
2022-09-02T17:04:31.079Z,14.66
2022-09-02T17:06:57.784Z,14.66
2022-09-02T17:09:24.290Z,14.67
2022-09-02T17:11:53.753Z,14.69
2022-09-02T17:14:21.760Z,14.68
2022-09-02T17:16:50.051Z,14.71
2022-09-02T17:19:21.868Z,14.71
2022-09-02T17:21:49.296Z,14.69
2022-09-02T17:24:15.995Z,14.66
2022-09-02T17:26:44.310Z,14.66
2022-09-02T17:29:37.960Z,14.67
2022-09-02T17:32:03.252Z,14.70
2022-09-02T17:34:32.159Z,14.63
2022-09-02T17:36:58.684Z,14.57
2022-09-02T17:39:26.830Z,14.60
2022-09-02T17:41:57.709Z,14.55
2022-09-02T17:44:35.926Z,14.57
2022-09-02T17:47:07.312Z,14.57
2022-09-02T17:49:35.564Z,14.53
2022-09-02T17:52:03.358Z,14.55
2022-09-02T17:54:30.059Z,14.54
2022-09-02T17:56:56.732Z,14.53
2022-09-02T17:59:42.416Z,14.56
2022-09-02T18:02:11.817Z,14.53
2022-09-02T18:04:38.335Z,14.58
2022-09-02T18:07:11.220Z,14.62
2022-09-02T18:09:38.849Z,14.55
2022-09-02T18:12:07.288Z,14.56
2022-09-02T18:14:37.470Z,14.61
2022-09-02T18:17:10.296Z,14.63
2022-09-02T18:19:52.140Z,14.63
2022-09-02T18:22:24.546Z,14.66
2022-09-02T18:25:13.023Z,14.64
2022-09-02T18:27:45.570Z,14.66
2022-09-02T18:30:15.124Z,14.64
2022-09-02T18:32:44.586Z,14.65
2022-09-02T18:35:29.910Z,14.63
2022-09-02T18:38:15.027Z,14.68
2022-09-02T18:40:44.291Z,14.70
2022-09-02T18:43:11.026Z,14.70
2022-09-02T18:45:50.814Z,14.71
2022-09-02T18:48:25.509Z,14.72
2022-09-02T18:50:59.338Z,14.71
2022-09-02T18:53:31.519Z,14.70
2022-09-02T18:56:02.382Z,14.69
2022-09-02T18:58:46.388Z,14.70
2022-09-02T19:01:22.993Z,14.77
2022-09-02T19:03:49.596Z,14.73
2022-09-02T19:06:17.692Z,14.73
2022-09-02T19:08:48.045Z,14.74
2022-09-02T19:11:15.972Z,14.74
2022-09-02T19:13:47.247Z,14.74
2022-09-02T19:16:18.506Z,14.76
2022-09-02T19:18:45.069Z,14.76
2022-09-02T19:21:14.503Z,14.77
2022-09-02T19:23:41.788Z,14.78
2022-09-02T19:26:08.494Z,14.76
2022-09-02T19:28:35.694Z,14.78
2022-09-02T19:31:04.014Z,14.80
2022-09-02T19:33:32.273Z,14.81
2022-09-02T19:35:59.267Z,14.80
2022-09-02T19:38:28.571Z,14.80
2022-09-02T19:40:55.095Z,14.81
2022-09-02T19:43:21.669Z,14.80
2022-09-02T19:45:51.412Z,14.82
2022-09-02T19:48:19.343Z,14.80
2022-09-02T19:50:47.071Z,14.84
2022-09-02T19:53:25.719Z,14.81
2022-09-02T19:55:52.226Z,14.79
2022-09-02T19:58:18.950Z,14.81
2022-09-02T20:00:45.615Z,14.82
2022-09-02T20:03:12.696Z,14.81
2022-09-02T20:05:40.414Z,14.82
2022-09-02T20:08:09.097Z,14.79
2022-09-02T20:10:39.406Z,14.79
2022-09-02T20:13:06.875Z,14.80
2022-09-02T20:15:36.532Z,14.83
2022-09-02T20:18:09.259Z,14.81
2022-09-02T20:20:35.794Z,14.82
2022-09-02T20:23:02.893Z,14.82
2022-09-02T20:25:49.703Z,14.82
2022-09-02T20:28:33.040Z,14.80
2022-09-02T20:31:16.246Z,14.82
2022-09-02T20:33:58.338Z,14.82
2022-09-02T20:36:34.137Z,14.83
2022-09-02T20:39:11.982Z,14.86
2022-09-02T20:41:44.751Z,14.88
2022-09-02T20:44:29.723Z,14.86
2022-09-02T20:46:59.337Z,14.85
2022-09-02T20:49:43.831Z,14.87
2022-09-02T20:52:25.993Z,14.87
2022-09-02T20:54:59.653Z,14.85
2022-09-02T20:57:26.113Z,14.86
2022-09-02T21:00:04.923Z,14.87
2022-09-02T21:02:38.262Z,14.89
2022-09-02T21:05:12.085Z,14.87
2022-09-02T21:07:45.661Z,14.88
2022-09-02T21:10:18.230Z,14.87
2022-09-02T21:12:52.718Z,14.89
2022-09-02T21:15:19.181Z,14.91
2022-09-02T21:17:49.294Z,14.93
2022-09-02T21:20:15.834Z,14.94
2022-09-02T21:22:45.041Z,14.95
2022-09-02T21:25:17.284Z,14.93
2022-09-02T21:27:45.787Z,14.95
2022-09-02T21:30:22.616Z,14.94
2022-09-02T21:32:49.104Z,14.95
2022-09-02T21:35:19.018Z,14.97
2022-09-02T21:37:45.861Z,14.97
2022-09-02T21:40:15.791Z,14.97
2022-09-02T21:43:01.018Z,14.96
2022-09-02T21:45:33.755Z,14.98
2022-09-02T21:48:20.794Z,14.96
2022-09-02T21:50:54.060Z,14.96
2022-09-02T21:53:29.677Z,14.97
2022-09-02T21:55:59.395Z,14.98
2022-09-02T21:58:28.669Z,14.97
2022-09-02T22:01:05.990Z,14.96
2022-09-02T22:03:43.163Z,14.98
2022-09-02T22:06:15.611Z,14.99
2022-09-02T22:08:44.125Z,15.01
2022-09-02T22:11:17.651Z,15.02
2022-09-02T22:13:45.340Z,15.01
2022-09-02T22:16:25.580Z,15.01
2022-09-02T22:19:02.425Z,15.01
2022-09-02T22:21:30.361Z,14.99
2022-09-02T22:23:57.424Z,15.02
2022-09-02T22:26:24.429Z,15.01
2022-09-02T22:28:53.315Z,15.01
2022-09-02T22:31:21.843Z,15.00
2022-09-02T22:33:55.652Z,15.02
2022-09-02T22:36:25.372Z,15.01
2022-09-02T22:38:52.232Z,15.01
2022-09-02T22:41:25.178Z,15.02
2022-09-02T22:43:58.791Z,15.02
2022-09-02T22:46:47.851Z,15.03
2022-09-02T22:49:34.314Z,15.04
2022-09-02T22:52:38.160Z,15.04
2022-09-02T22:55:05.766Z,15.03
2022-09-02T22:57:32.240Z,15.05
2022-09-02T23:00:04.473Z,15.07
2022-09-02T23:02:51.174Z,15.08
2022-09-02T23:05:43.108Z,15.06
2022-09-02T23:08:10.318Z,15.05
2022-09-02T23:10:40.542Z,15.02
2022-09-02T23:13:16.521Z,15.03
2022-09-02T23:15:49.003Z,15.03
2022-09-02T23:18:22.058Z,15.02
2022-09-02T23:20:57.549Z,15.02
2022-09-02T23:23:26.863Z,15.02
2022-09-02T23:25:53.546Z,15.01
2022-09-02T23:28:31.247Z,15.03
2022-09-02T23:31:06.992Z,15.04
2022-09-02T23:33:52.171Z,15.05
2022-09-02T23:36:34.270Z,15.06
2022-09-02T23:39:00.812Z,15.06
2022-09-02T23:41:27.884Z,15.06
2022-09-02T23:43:54.758Z,15.03
2022-09-02T23:46:28.362Z,15.03
2022-09-02T23:49:10.082Z,15.01
2022-09-02T23:51:36.625Z,14.99
2022-09-02T23:54:21.831Z,15.01
2022-09-02T23:57:06.448Z,15.00
2022-09-02T23:59:45.158Z,15.00
